KG5VSR Weather Reports


Display with metric or nautical units.
time (UTC)temp
F
wind
direction
speed
MPH
gust
MPH
rain 1hr
in
rain 24hr
in
rain mn
in
humidity
%
barometer
mb
20220706225644 102 118 5.0 7.0 0.00 0.00 0.00 34 1011.0
20220706222645 102 175 1.0 2.0 0.00 0.00 0.00 34 1011.4
20220706215643 103 137 3.0 5.0 0.00 0.00 0.00 32 1011.7
20220706212641 102 196 2.0 2.0 0.00 0.00 0.00 34 1011.9
20220706205639 102 60 2.0 3.0 0.00 0.00 0.00 33 1012.3
20220706202638 103 169 4.0 6.0 0.00 0.00 0.00 34 1012.3
20220706195638 103 186 1.0 1.0 0.00 0.00 0.00 34 1012.6
20220706192637 102 174 1.0 1.0 0.00 0.00 0.00 36 1012.9
20220706185637 101 175 5.0 8.0 0.00 0.00 0.00 36 1013.2
20220706182635 100 165 1.0 1.0 0.00 0.00 0.00 37 1013.8
20220706175634 98 173 5.0 6.0 0.00 0.00 0.00 39 1014.4
20220706172634 97 180 0.0 1.0 0.00 0.00 0.00 43 1014.7
20220706165633 97 201 3.0 5.0 0.00 0.00 0.00 42 1015.0
20220706162632 95 101 2.0 2.0 0.00 0.00 0.00 44 1015.1
20220706155630 93 138 1.0 2.0 0.00 0.00 0.00 47 1015.3
20220706152629 91 180 3.0 3.0 0.00 0.00 0.00 51 1015.4
20220706145628 89 180 1.0 1.0 0.00 0.00 0.00 56 1015.5
20220706142628 87 170 2.0 2.0 0.00 0.00 0.00 60 1015.9
20220706135629 85 173 3.0 3.0 0.00 0.00 0.00 65 1015.5
20220706132627 83 174 5.0 7.0 0.00 0.00 0.00 70 1015.5
20220706125628 82 138 3.0 5.0 0.00 0.00 0.00 72 1015.2
20220706122627 80 151 2.0 2.0 0.00 0.00 0.00 74 1014.8
20220706115627 80 177 3.0 3.0 0.00 0.00 0.00 74 1014.7
20220706112626 80 112 2.0 2.0 0.00 0.00 0.00 73 1014.2
20220706105625 81 126 3.0 3.0 0.00 0.00 0.00 71 1013.7
20220706102624 81 181 3.0 3.0 0.00 0.00 0.00 69 1013.6
20220706095623 82 168 2.0 2.0 0.00 0.00 0.00 68 1013.5
20220706092623 83 166 3.0 3.0 0.00 0.00 0.00 66 1013.2
20220706085621 83 163 1.0 1.0 0.00 0.00 0.00 64 1013.1
20220706082622 84 140 3.0 5.0 0.00 0.00 0.00 63 1013.0
20220706075621 84 165 2.0 3.0 0.00 0.00 0.00 62 1012.8
20220706072620 85 173 1.0 1.0 0.00 0.00 0.00 59 1012.8
20220706065620 86 180 1.0 2.0 0.00 0.00 0.00 57 1012.6
20220706062618 85 159 1.0 2.0 0.00 0.00 0.00 57 1012.9
20220706055618 87 144 0.0 0.0 0.00 0.00 0.00 55 1012.8
20220706052617 88 151 2.0 2.0 0.00 0.00 0.00 52 1013.1
20220706045616 89 191 3.0 5.0 0.00 0.00 0.00 50 1013.3
20220706042615 90 190 1.0 2.0 0.00 0.00 0.00 49 1013.3
20220706035615 91 166 2.0 3.0 0.00 0.00 0.00 47 1013.2
20220706032614 92 142 3.0 5.0 0.00 0.00 0.00 46 1012.8
20220706025614 92 160 4.0 5.0 0.00 0.00 0.00 45 1012.4
20220706022615 93 187 1.0 2.0 0.00 0.00 0.00 45 1012.0
20220706015613 94 107 1.0 1.0 0.00 0.00 0.00 44 1011.8
20220706012614 95 179 3.0 5.0 0.00 0.00 0.00 42 1011.7
20220706005613 96 176 1.0 1.0 0.00 0.00 0.00 40 1011.7
20220706002613 97 175 4.0 5.0 0.00 0.00 0.00 38 1011.5
20220705235613 98 152 2.0 5.0 0.00 0.00 0.00 38 1011.4
20220705232613 99 155 4.0 7.0 0.00 0.00 0.00 36 1011.6